You must use a browser capable of displaying tables to view this page.

The table shows the data used to make the storm track maps. Click on the storm name in the first row to get a close up view of the storm track.

Name Date Time (UT) Lat (degrees) Lon (degrees) Course (true) Speed (knots) Pressure (mb) Wind (knots) Gusts (knots) Type Actual / Forecast WMO
AERE 2011-05-06 06:00 11.5N 128.4E 305 04 ??? 030 040 DEP ACT WTPN31
AERE 2011-05-06 12:00 11.7N 128.2E 315 03 ??? 030 040 DEP ACT WTPN31
AERE 2011-05-06 18:00 11.9N 127.3E 290 05 ??? 030 040 DEP ACT WTPN31
AERE 2011-05-07 00:00 12.8N 126.8E 315 08 ??? 035 045 STO ACT WTPN31
AERE 2011-05-07 06:00 12.8N 126.3E 290 05 ??? 035 045 STO ACT WTPN31
AERE 2011-05-07 12:00 13.3N 125.5E 295 07 ??? 045 055 STO ACT WTPN31
AERE 2011-05-07 18:00 13.6N 124.7E 295 07 ??? 045 055 STO ACT WTPN31
AERE 2011-05-08 00:00 13.8N 124.0E 285 07 ??? 050 065 STO ACT WTPN31
AERE 2011-05-08 06:00 14.6N 123.5E 315 08 ??? 050 065 STO ACT WTPN31
AERE 2011-05-08 12:00 15.4N 122.9E 325 10 ??? 050 065 STO ACT WTPN31
AERE 2011-05-08 18:00 15.7N 122.8E 335 07 ??? 050 065 STO ACT WTPN31
AERE 2011-05-09 00:00 16.5N 122.5E 340 09 ??? 045 055 STO ACT WTPN31
AERE 2011-05-09 06:00 17.1N 122.3E 345 07 ??? 040 050 STO ACT WTPN31
AERE 2011-05-09 12:00 18.0N 122.3E 360 09 ??? 040 050 STO ACT WTPN31
AERE 2011-05-09 18:00 19.0N 122.3E 005 11 ??? 040 050 STO ACT WTPN31
AERE 2011-05-10 00:00 20.3N 121.9E 005 13 ??? 035 045 STO ACT WTPN31
AERE 2011-05-10 06:00 21.0N 122.4E 035 08 ??? 035 045 STO ACT WTPN31
AERE 2011-05-10 12:00 22.3N 123.8E 045 18 ??? 035 045 STO ACT WTPN31
AERE 2011-05-10 18:00 23.3N 124.8E 040 14 ??? 035 045 STO ACT WTPN31
AERE 2011-05-11 00:00 24.9N 126.0E 035 16 ??? 035 045 STO ACT WTPN31
AERE 2011-05-11 06:00 26.5N 127.6E 040 22 ??? 035 045 STO ACT WTPN31
AERE 2011-05-11 12:00 27.6N 129.5E 055 20 ??? 035 045 STO ACT WTPN31
AERE 2011-05-11 18:00 29.8N 132.0E 050 26 ??? 035 045 STO ACT WTPN31
AERE 2011-05-12 06:00 33.1N 137.1E ??? ??? ??? 035 045 ??? FOR WTPN31
AERE 2011-05-12 18:00 36.2N 143.0E ??? ??? ??? 035 045 ??? FOR WTPN31


Home Back

metcalf@akala.ifa.hawaii.edu